Time;durP1;ratioP1;P1;durP2;ratioP2;P2;SDS_P1;SDS_P2;PMS_P1;PMS_P2;Temp;Humidity;BMP_temperature;BMP_pressure;BME280_temperature;BME280_humidity;BME280_pressure;Samples;Min_cycle;Max_cycle;Signal;HPM_P1;HPM_P2
2022/11/26 00:02:22;;;;;;;1.92;1.10;;;4.90;92.70;;;;;;5112850;28;20395;-75
2022/11/26 00:04:49;;;;;;;1.13;0.70;;;4.90;92.70;;;;;;5112226;28;20564;-75
2022/11/26 00:07:20;;;;;;;0.93;0.60;;;4.90;92.70;;;;;;5111802;28;20106;-75
2022/11/26 00:09:46;;;;;;;0.85;0.63;;;4.90;92.70;;;;;;5112041;28;20040;-75
2022/11/26 00:12:16;;;;;;;1.55;0.80;;;4.90;92.60;;;;;;5093539;28;20053;-75
2022/11/26 00:14:42;;;;;;;1.48;0.80;;;4.90;92.60;;;;;;5111902;28;20051;-75
2022/11/26 00:17:12;;;;;;;0.70;0.60;;;4.90;92.60;;;;;;5093767;28;20044;-74
2022/11/26 00:19:38;;;;;;;0.60;0.60;;;4.90;92.60;;;;;;5112026;28;20035;-75
2022/11/26 00:22:05;;;;;;;1.27;0.75;;;4.90;92.60;;;;;;5093651;28;20047;-75
2022/11/26 00:24:31;;;;;;;1.15;0.70;;;4.90;92.60;;;;;;5093884;28;20102;-75
2022/11/26 00:26:58;;;;;;;0.95;0.60;;;5.00;92.60;;;;;;5111938;28;20094;-75
2022/11/26 00:29:24;;;;;;;1.38;0.90;;;4.90;92.60;;;;;;5093727;28;20096;-75
2022/11/26 00:31:50;;;;;;;1.30;0.80;;;4.90;92.60;;;;;;5112045;28;20437;-75
2022/11/26 00:34:15;;;;;;;0.80;0.60;;;4.90;92.60;;;;;;5112188;28;20070;-75
2022/11/26 00:36:43;;;;;;;0.70;0.70;;;4.90;92.60;;;;;;5093589;28;20044;-75
2022/11/26 00:39:14;;;;;;;1.00;0.55;;;5.00;92.60;;;;;;5111792;28;20039;-75
2022/11/26 00:41:40;;;;;;;;;;;4.90;92.60;;;;;;5112341;28;20046;-75
2022/11/26 00:44:23;;;;;;;0.82;0.68;;;4.90;92.60;;;;;;5111556;28;19912;-75
2022/11/26 00:46:49;;;;;;;0.65;0.60;;;4.90;92.60;;;;;;5112019;28;20036;-75
2022/11/26 00:49:16;;;;;;;0.70;0.50;;;4.90;92.50;;;;;;5111505;28;20402;-75
2022/11/26 00:51:42;;;;;;;0.70;0.70;;;5.00;92.50;;;;;;5093311;28;20044;-75
2022/11/26 00:54:13;;;;;;;1.58;0.60;;;4.90;92.30;;;;;;5111847;28;20046;-75
2022/11/26 00:56:39;;;;;;;0.52;0.47;;;4.90;92.50;;;;;;5111687;28;20035;-75
2022/11/26 00:59:05;;;;;;;0.90;0.80;;;4.90;92.50;;;;;;5111831;28;20458;-75
2022/11/26 01:01:31;;;;;;;0.45;0.45;;;4.80;92.50;;;;;;5093273;28;20120;-75
2022/11/26 01:03:58;;;;;;;1.20;0.70;;;4.80;92.60;;;;;;5111443;28;20054;-75
2022/11/26 01:06:30;;;;;;;1.08;0.65;;;4.90;92.60;;;;;;5111426;28;20067;-75
2022/11/26 01:08:55;;;;;;;0.43;0.43;;;4.70;92.60;;;;;;5107683;28;20056;-75
2022/11/26 01:11:22;;;;;;;1.15;0.68;;;4.70;92.60;;;;;;5076532;28;20070;-75
2022/11/26 01:13:50;;;;;;;0.60;0.60;;;4.60;92.70;;;;;;5092956;28;20051;-75
2022/11/26 01:16:22;;;;;;;0.57;0.57;;;4.60;92.90;;;;;;5111644;28;20040;-75
2022/11/26 01:18:50;;;;;;;0.90;0.55;;;4.50;92.70;;;;;;5093571;28;20031;-75
2022/11/26 01:21:16;;;;;;;1.45;0.70;;;4.50;92.70;;;;;;5114595;28;20411;-75
2022/11/26 01:23:43;;;;;;;1.25;0.63;;;4.50;92.70;;;;;;5114622;28;20035;-75
2022/11/26 01:26:19;;;;;;;2.35;0.73;;;4.50;92.80;;;;;;5115179;28;20035;-75
2022/11/26 01:28:45;;;;;;;0.80;0.60;;;4.50;92.80;;;;;;5096396;28;20067;-74
2022/11/26 01:31:21;;;;;;;1.15;0.60;;;4.40;92.80;;;;;;5096464;28;20491;-75
2022/11/26 01:33:47;;;;;;;0.80;0.50;;;4.40;92.80;;;;;;5114690;28;20036;-75
2022/11/26 01:36:31;;;;;;;1.17;0.80;;;4.40;92.80;;;;;;5114462;28;20407;-75
2022/11/26 01:39:02;;;;;;;0.50;0.50;;;4.40;92.80;;;;;;5114516;28;20031;-75
2022/11/26 01:41:45;;;;;;;1.02;0.50;;;4.30;92.80;;;;;;5112816;28;20042;-75
2022/11/26 01:44:19;;;;;;;0.63;0.52;;;4.40;92.80;;;;;;5114648;28;20062;-75
2022/11/26 01:46:45;;;;;;;0.43;0.43;;;4.40;92.80;;;;;;5096039;28;20035;-75
2022/11/26 01:49:32;;;;;;;0.45;0.40;;;4.30;92.70;;;;;;5114398;28;20040;-75
2022/11/26 01:52:06;;;;;;;0.40;0.40;;;4.30;92.70;;;;;;5114482;28;20047;-75
2022/11/26 01:54:35;;;;;;;0.45;0.43;;;4.30;92.80;;;;;;5095933;28;20045;-74
2022/11/26 01:57:09;;;;;;;1.27;0.50;;;4.20;92.70;;;;;;5114076;28;20039;-75
2022/11/26 01:59:39;;;;;;;0.85;0.52;;;4.20;92.80;;;;;;5114674;28;20076;-75
2022/11/26 02:02:05;;;;;;;0.68;0.50;;;4.20;92.80;;;;;;5114581;28;20067;-75
2022/11/26 02:04:36;;;;;;;0.70;0.50;;;4.30;92.80;;;;;;5114249;28;20067;-75
2022/11/26 02:07:02;;;;;;;2.15;0.50;;;4.20;92.70;;;;;;5114255;28;20050;-75
2022/11/26 02:09:29;;;;;;;1.27;0.68;;;4.20;92.70;;;;;;5114299;28;20075;-75
2022/11/26 02:11:55;;;;;;;0.90;0.65;;;4.30;92.70;;;;;;5095808;28;20063;-75
2022/11/26 02:14:25;;;;;;;1.67;0.70;;;4.10;92.70;;;;;;5113836;28;20039;-75
2022/11/26 02:17:17;;;;;;;0.75;0.45;;;4.10;92.70;;;;;;5096274;28;20445;-75
2022/11/26 02:20:11;;;;;;;0.50;0.47;;;4.20;92.80;;;;;;5098257;28;20039;-75
2022/11/26 02:23:03;;;;;;;0.60;0.50;;;4.10;92.80;;;;;;5112559;28;20036;-75
2022/11/26 02:25:51;;;;;;;0.50;0.50;;;4.00;92.70;;;;;;5095548;28;20071;-75
2022/11/26 02:28:52;;;;;;;0.47;0.47;;;4.00;92.80;;;;;;5113974;28;20043;-75
2022/11/26 02:31:43;;;;;;;0.70;0.52;;;4.00;92.80;;;;;;5114154;28;20113;-75
2022/11/26 02:34:36;;;;;;;0.52;0.40;;;3.90;92.80;;;;;;5082033;28;20051;-75
2022/11/26 02:37:10;;;;;;;0.45;0.40;;;3.90;92.80;;;;;;5095217;28;20552;-75
2022/11/26 02:39:35;;;;;;;1.08;0.70;;;3.80;92.70;;;;;;5113725;28;20040;-75
2022/11/26 02:42:03;;;;;;;0.45;0.43;;;3.90;92.80;;;;;;5113386;28;20055;-75
2022/11/26 02:44:43;;;;;;;0.55;0.50;;;3.80;92.70;;;;;;5095922;28;20040;-75
2022/11/26 02:47:11;;;;;;;0.80;0.60;;;3.80;92.80;;;;;;5096521;28;20586;-75
2022/11/26 02:49:40;;;;;;;1.02;0.60;;;3.80;92.80;;;;;;5078684;28;20095;-75
2022/11/26 02:52:08;;;;;;;1.15;0.60;;;3.70;92.80;;;;;;5095228;28;20047;-75
2022/11/26 02:54:36;;;;;;;0.50;0.50;;;3.70;92.80;;;;;;5093039;28;20039;-75
2022/11/26 02:57:05;;;;;;;0.77;0.60;;;3.70;92.80;;;;;;5113163;28;20058;-75
2022/11/26 02:59:32;;;;;;;0.55;0.50;;;3.70;92.80;;;;;;5094826;28;20074;-75
2022/11/26 03:02:12;;;;;;;1.10;0.65;;;3.60;92.80;;;;;;5113069;28;20042;-75
2022/11/26 03:04:42;;;;;;;1.27;0.70;;;3.60;92.80;;;;;;5094920;28;20117;-75
2022/11/26 03:07:09;;;;;;;1.02;0.68;;;3.70;92.80;;;;;;5078075;28;20114;-75
2022/11/26 03:09:50;;;;;;;1.33;0.60;;;3.70;92.80;;;;;;5093143;28;20512;-75
2022/11/26 03:12:16;;;;;;;1.23;0.60;;;3.60;93.10;;;;;;5094751;28;20043;-75
2022/11/26 03:14:41;;;;;;;0.90;0.55;;;3.70;92.80;;;;;;5113334;28;20126;-75
2022/11/26 03:17:07;;;;;;;0.60;0.60;;;3.70;92.80;;;;;;5113052;28;20032;-75
2022/11/26 03:19:33;;;;;;;0.70;0.68;;;3.70;92.80;;;;;;5112893;28;20510;-76
2022/11/26 03:21:58;;;;;;;0.75;0.60;;;3.60;92.80;;;;;;5094645;28;20474;-75
2022/11/26 03:24:24;;;;;;;0.47;0.47;;;3.70;92.80;;;;;;5094579;28;20044;-75
2022/11/26 03:26:50;;;;;;;0.38;0.38;;;3.70;92.70;;;;;;5094768;28;20043;-75
2022/11/26 03:29:15;;;;;;;0.90;0.60;;;3.80;92.70;;;;;;5094231;28;20043;-75
2022/11/26 03:31:41;;;;;;;1.27;0.60;;;3.80;92.70;;;;;;5094064;28;20481;-75
2022/11/26 03:34:07;;;;;;;1.45;0.60;;;3.70;92.70;;;;;;5112691;28;20032;-75
2022/11/26 03:36:32;;;;;;;0.50;0.50;;;3.70;92.70;;;;;;5112642;28;20046;-75
2022/11/26 03:38:58;;;;;;;0.47;0.47;;;3.60;92.70;;;;;;5112693;28;20043;-76
2022/11/26 03:41:24;;;;;;;0.85;0.60;;;3.70;92.70;;;;;;5112299;28;20040;-75
2022/11/26 03:43:49;;;;;;;0.90;0.60;;;3.70;92.80;;;;;;5094305;28;20039;-75
2022/11/26 03:46:15;;;;;;;0.40;0.40;;;3.60;92.70;;;;;;5112082;28;20133;-75
2022/11/26 03:48:40;;;;;;;0.52;0.50;;;3.70;92.80;;;;;;5112441;28;20058;-75
2022/11/26 03:51:06;;;;;;;0.80;0.50;;;3.60;92.80;;;;;;5112371;28;20123;-75
2022/11/26 03:53:32;;;;;;;0.90;0.50;;;3.60;92.80;;;;;;5112622;28;20510;-75
2022/11/26 03:55:58;;;;;;;0.85;0.57;;;3.60;92.80;;;;;;5112944;28;20122;-75
2022/11/26 03:58:23;;;;;;;0.40;0.40;;;3.60;92.80;;;;;;5112469;28;20046;-75
2022/11/26 04:00:49;;;;;;;0.95;0.50;;;3.50;92.80;;;;;;5112865;28;20066;-75
2022/11/26 04:03:14;;;;;;;1.33;0.50;;;3.60;92.80;;;;;;5110913;28;20032;-75
2022/11/26 04:05:40;;;;;;;0.35;0.35;;;3.50;92.70;;;;;;5110329;28;20091;-75
2022/11/26 04:08:06;;;;;;;0.68;0.50;;;3.60;92.80;;;;;;5094000;28;20047;-75
2022/11/26 04:10:31;;;;;;;0.65;0.50;;;3.50;92.80;;;;;;5112262;28;20043;-75
2022/11/26 04:12:57;;;;;;;1.50;0.60;;;3.50;92.80;;;;;;5112661;28;20379;-75
2022/11/26 04:15:22;;;;;;;1.63;0.60;;;3.50;92.80;;;;;;5112147;28;20063;-75
2022/11/26 04:17:48;;;;;;;0.95;0.63;;;3.40;92.80;;;;;;5112104;28;20071;-75
2022/11/26 04:20:14;;;;;;;0.82;0.50;;;3.50;92.80;;;;;;5093902;28;20043;-75
2022/11/26 04:22:39;;;;;;;0.50;0.50;;;3.50;92.80;;;;;;5112138;28;20046;-75
2022/11/26 04:25:05;;;;;;;1.02;0.57;;;3.40;92.80;;;;;;5094231;28;20051;-75
2022/11/26 04:27:31;;;;;;;1.20;0.50;;;3.40;93.00;;;;;;5111941;28;20036;-76
2022/11/26 04:29:56;;;;;;;0.65;0.40;;;3.40;92.80;;;;;;5112451;28;20456;-75
2022/11/26 04:32:23;;;;;;;1.00;0.57;;;3.30;92.80;;;;;;5093710;28;20093;-75
2022/11/26 04:34:48;;;;;;;0.68;0.60;;;3.40;92.80;;;;;;5112056;28;20047;-75
2022/11/26 04:37:14;;;;;;;0.93;0.55;;;3.40;92.80;;;;;;5076691;28;20051;-75
2022/11/26 04:39:39;;;;;;;1.15;0.50;;;3.40;92.80;;;;;;5112034;28;20046;-75
2022/11/26 04:42:05;;;;;;;1.10;0.63;;;3.40;92.80;;;;;;5093567;28;20044;-75
2022/11/26 04:44:31;;;;;;;0.65;0.50;;;3.30;92.80;;;;;;5112055;28;20403;-75
2022/11/26 04:46:56;;;;;;;0.95;0.50;;;3.30;92.80;;;;;;5093475;28;20503;-75
2022/11/26 04:49:22;;;;;;;0.50;0.50;;;3.30;92.80;;;;;;5111557;28;20071;-75
2022/11/26 04:51:48;;;;;;;0.82;0.47;;;3.30;92.80;;;;;;5111651;28;20042;-75
2022/11/26 04:54:13;;;;;;;0.73;0.40;;;3.20;92.80;;;;;;5094567;28;20052;-76
2022/11/26 04:56:39;;;;;;;0.52;0.50;;;3.30;92.80;;;;;;5115550;28;20035;-75
2022/11/26 04:59:04;;;;;;;0.50;0.50;;;3.20;93.00;;;;;;5115149;28;20085;-75
2022/11/26 05:01:30;;;;;;;0.68;0.50;;;3.20;92.80;;;;;;5095443;28;20040;-75
2022/11/26 05:03:56;;;;;;;0.60;0.60;;;3.10;92.80;;;;;;5096916;28;20062;-75
2022/11/26 05:06:21;;;;;;;0.73;0.47;;;3.30;92.80;;;;;;5097481;28;20036;-75
2022/11/26 05:08:47;;;;;;;1.70;0.80;;;3.10;92.80;;;;;;5115742;28;20042;-75
2022/11/26 05:11:12;;;;;;;0.60;0.60;;;3.10;92.80;;;;;;5097321;28;20040;-75
2022/11/26 05:13:38;;;;;;;0.77;0.68;;;3.10;92.80;;;;;;5115641;28;20138;-75
2022/11/26 05:16:04;;;;;;;0.38;0.38;;;3.10;92.80;;;;;;5115207;28;20031;-75
2022/11/26 05:18:30;;;;;;;1.25;0.77;;;3.10;92.80;;;;;;5115657;28;20092;-75
2022/11/26 05:20:55;;;;;;;0.70;0.60;;;3.10;92.80;;;;;;5115736;28;20044;-75
2022/11/26 05:23:21;;;;;;;0.70;0.70;;;3.10;92.80;;;;;;5113348;28;20047;-76
2022/11/26 05:25:46;;;;;;;0.63;0.50;;;3.00;92.80;;;;;;5096801;28;20044;-75
2022/11/26 05:28:12;;;;;;;0.40;0.40;;;3.10;92.80;;;;;;5113173;28;20119;-75
2022/11/26 05:30:38;;;;;;;0.80;0.63;;;3.00;92.80;;;;;;5115163;28;20039;-75
2022/11/26 05:33:04;;;;;;;0.50;0.35;;;3.00;92.80;;;;;;5115149;28;20440;-75
2022/11/26 05:35:29;;;;;;;0.70;0.40;;;3.00;92.80;;;;;;5096867;28;20478;-75
2022/11/26 05:37:55;;;;;;;0.75;0.57;;;3.10;92.80;;;;;;5114890;28;20040;-75
2022/11/26 05:40:21;;;;;;;1.33;0.70;;;3.00;92.80;;;;;;5096869;28;20036;-76
2022/11/26 05:42:46;;;;;;;0.68;0.52;;;3.10;92.80;;;;;;5096333;28;20062;-75
2022/11/26 05:45:12;;;;;;;0.47;0.47;;;2.90;92.70;;;;;;5096927;28;20043;-76
2022/11/26 05:47:37;;;;;;;0.68;0.65;;;3.00;92.70;;;;;;5114942;28;20145;-76
2022/11/26 05:50:03;;;;;;;1.08;0.70;;;3.00;92.70;;;;;;5114671;28;20053;-76
2022/11/26 05:52:29;;;;;;;0.63;0.45;;;3.10;92.80;;;;;;5114549;28;20090;-76
2022/11/26 05:54:55;;;;;;;0.63;0.55;;;3.00;92.80;;;;;;5114700;28;20059;-76
2022/11/26 05:57:20;;;;;;;0.70;0.40;;;3.00;92.80;;;;;;5114774;28;20108;-75
2022/11/26 05:59:48;;;;;;;0.32;0.32;;;2.90;92.70;;;;;;5096289;28;20051;-75
2022/11/26 06:02:14;;;;;;;1.48;0.50;;;2.90;92.70;;;;;;5114324;28;20044;-76
2022/11/26 06:04:39;;;;;;;0.30;0.30;;;3.00;92.80;;;;;;5095774;28;20403;-75
2022/11/26 06:07:05;;;;;;;0.90;0.55;;;2.90;92.80;;;;;;5079353;28;20039;-75
2022/11/26 06:09:31;;;;;;;0.40;0.40;;;2.90;92.80;;;;;;5096165;28;20035;-76
2022/11/26 06:11:56;;;;;;;0.68;0.60;;;3.00;92.80;;;;;;5096543;28;20040;-76
2022/11/26 06:14:22;;;;;;;1.60;0.82;;;2.90;92.80;;;;;;5096413;28;20097;-76
2022/11/26 06:16:47;;;;;;;0.77;0.60;;;2.90;92.80;;;;;;5114265;28;20101;-76
2022/11/26 06:19:13;;;;;;;1.45;0.57;;;2.90;92.80;;;;;;5114139;28;20040;-76
2022/11/26 06:21:39;;;;;;;0.93;0.60;;;2.80;92.80;;;;;;5095747;28;20121;-76
2022/11/26 06:24:05;;;;;;;1.00;0.70;;;2.80;92.80;;;;;;5096313;28;20479;-76
2022/11/26 06:26:30;;;;;;;1.05;0.55;;;2.80;92.80;;;;;;5095780;28;20368;-75
2022/11/26 06:28:56;;;;;;;1.05;0.60;;;2.80;92.80;;;;;;5113961;28;20185;-76
2022/11/26 06:31:21;;;;;;;1.08;0.55;;;2.80;92.80;;;;;;5095980;28;20024;-76
2022/11/26 06:33:51;;;;;;;0.70;0.70;;;2.80;92.80;;;;;;5095767;28;20051;-76
2022/11/26 06:36:17;;;;;;;0.85;0.68;;;2.80;92.80;;;;;;5113798;28;20040;-76
2022/11/26 06:38:42;;;;;;;1.02;0.75;;;2.70;92.80;;;;;;5095488;28;20035;-76
2022/11/26 06:41:08;;;;;;;1.05;0.70;;;2.80;92.80;;;;;;5095504;28;20040;-76
2022/11/26 06:43:34;;;;;;;0.80;0.60;;;2.70;92.70;;;;;;5078782;28;20077;-76
2022/11/26 06:46:04;;;;;;;0.73;0.70;;;2.70;92.80;;;;;;5079007;28;20494;-76
2022/11/26 06:48:30;;;;;;;0.75;0.70;;;2.80;92.80;;;;;;5095563;28;20130;-76
2022/11/26 06:50:56;;;;;;;0.85;0.60;;;2.70;92.80;;;;;;5096025;28;20105;-75
2022/11/26 06:53:21;;;;;;;1.27;0.68;;;2.80;92.80;;;;;;5113702;28;20384;-76
2022/11/26 06:55:47;;;;;;;1.15;0.82;;;2.70;92.80;;;;;;5096219;28;20071;-76
2022/11/26 06:58:13;;;;;;;1.00;0.73;;;2.80;92.80;;;;;;5113777;28;20067;-76
2022/11/26 07:00:40;;;;;;;1.30;0.73;;;2.80;92.80;;;;;;5114293;28;20036;-76
2022/11/26 07:03:06;;;;;;;0.75;0.63;;;2.70;92.80;;;;;;5113653;28;20386;-76
2022/11/26 07:05:33;;;;;;;1.23;0.70;;;2.70;92.80;;;;;;5113715;28;20046;-76
2022/11/26 07:07:59;;;;;;;0.40;0.40;;;2.70;92.70;;;;;;5114178;28;20024;-76
2022/11/26 07:10:25;;;;;;;0.50;0.50;;;2.80;92.70;;;;;;5095286;28;20093;-76
2022/11/26 07:12:50;;;;;;;1.33;0.73;;;2.80;92.70;;;;;;5114013;28;20043;-76
2022/11/26 07:15:16;;;;;;;0.90;0.73;;;2.90;92.70;;;;;;5114021;28;20105;-76
2022/11/26 07:17:42;;;;;;;0.65;0.50;;;2.80;92.70;;;;;;5112560;28;20499;-76
2022/11/26 07:20:08;;;;;;;0.50;0.50;;;2.80;92.70;;;;;;5078086;28;20452;-76
2022/11/26 07:22:34;;;;;;;1.15;0.75;;;2.90;92.70;;;;;;5113686;28;20031;-76
2022/11/26 07:25:02;;;;;;;0.77;0.60;;;2.90;92.70;;;;;;5077890;28;20028;-75
2022/11/26 07:27:28;;;;;;;0.80;0.77;;;2.90;92.60;;;;;;5113614;28;20043;-76
2022/11/26 07:29:53;;;;;;;1.02;0.68;;;2.90;92.60;;;;;;5094877;28;20507;-76
2022/11/26 07:32:19;;;;;;;1.58;0.80;;;2.90;92.60;;;;;;5113114;28;20536;-76
2022/11/26 07:34:44;;;;;;;1.15;0.80;;;3.00;92.60;;;;;;5112927;28;20068;-76
2022/11/26 07:37:10;;;;;;;0.90;0.57;;;3.00;92.60;;;;;;5113339;28;20054;-76
2022/11/26 07:39:36;;;;;;;1.25;0.68;;;3.00;92.50;;;;;;5113523;28;20130;-76
2022/11/26 07:42:01;;;;;;;0.57;0.57;;;3.00;92.50;;;;;;5113436;28;20140;-76
2022/11/26 07:44:27;;;;;;;0.70;0.65;;;3.00;92.50;;;;;;5094690;28;20035;-76
2022/11/26 07:46:52;;;;;;;0.95;0.50;;;3.20;92.50;;;;;;5094560;28;20538;-76
2022/11/26 07:49:18;;;;;;;1.13;0.68;;;3.00;92.50;;;;;;5094741;28;20044;-76
2022/11/26 07:51:44;;;;;;;0.70;0.60;;;3.00;92.50;;;;;;5077753;28;20510;-76
2022/11/26 07:54:09;;;;;;;1.10;0.70;;;3.10;92.60;;;;;;5077678;28;20085;-76
2022/11/26 07:56:35;;;;;;;0.55;0.50;;;3.10;92.60;;;;;;5094546;28;20559;-76
2022/11/26 07:59:02;;;;;;;1.02;0.45;;;3.10;92.50;;;;;;5094356;28;20077;-76
2022/11/26 08:01:28;;;;;;;0.77;0.50;;;3.20;92.50;;;;;;5094371;28;20070;-76
2022/11/26 08:03:55;;;;;;;0.90;0.63;;;3.20;92.50;;;;;;5112633;28;20032;-76
2022/11/26 08:06:25;;;;;;;1.00;0.60;;;3.20;92.50;;;;;;5113053;28;20122;-76
2022/11/26 08:08:51;;;;;;;0.80;0.55;;;3.30;92.50;;;;;;5094353;28;20050;-76
2022/11/26 08:11:20;;;;;;;0.60;0.60;;;3.30;92.40;;;;;;5112734;28;20040;-76
2022/11/26 08:13:47;;;;;;;0.60;0.50;;;3.40;92.40;;;;;;5112468;28;20032;-76
2022/11/26 08:16:13;;;;;;;0.60;0.60;;;3.40;92.40;;;;;;5112307;28;20402;-76
2022/11/26 08:18:39;;;;;;;1.30;0.55;;;3.40;92.40;;;;;;5112361;28;20047;-76
2022/11/26 08:21:05;;;;;;;1.38;0.60;;;3.40;92.40;;;;;;5094502;28;20032;-76
2022/11/26 08:23:31;;;;;;;0.77;0.47;;;3.40;92.30;;;;;;5061075;28;20044;-76
2022/11/26 08:25:57;;;;;;;0.65;0.50;;;3.50;92.40;;;;;;5077603;28;20074;-76
2022/11/26 08:28:23;;;;;;;1.20;0.55;;;3.50;92.60;;;;;;5114274;28;20424;-76
2022/11/26 08:30:49;;;;;;;0.55;0.50;;;3.60;92.40;;;;;;5097700;28;20134;-76
2022/11/26 08:33:14;;;;;;;1.23;0.75;;;3.60;92.30;;;;;;5116540;28;20123;-76
2022/11/26 08:35:41;;;;;;;2.42;0.75;;;3.60;92.30;;;;;;5116163;28;20044;-76
2022/11/26 08:38:06;;;;;;;1.50;0.70;;;3.60;92.30;;;;;;5097749;28;20067;-76
2022/11/26 08:40:32;;;;;;;0.80;0.43;;;3.70;92.30;;;;;;5097701;28;20554;-75
2022/11/26 08:42:58;;;;;;;0.70;0.63;;;3.80;92.30;;;;;;5116307;28;20158;-75
2022/11/26 08:45:23;;;;;;;0.73;0.63;;;3.90;92.30;;;;;;5114861;28;20044;-75
2022/11/26 08:47:49;;;;;;;1.00;0.65;;;4.00;92.20;;;;;;5115355;28;20483;-75
2022/11/26 08:50:15;;;;;;;0.68;0.60;;;4.10;92.30;;;;;;5115744;28;20538;-75
2022/11/26 08:52:42;;;;;;;1.23;0.88;;;4.20;92.20;;;;;;5115721;28;20044;-75
2022/11/26 08:55:08;;;;;;;0.70;0.60;;;4.30;92.10;;;;;;5115660;28;20465;-75
2022/11/26 08:57:33;;;;;;;1.25;0.70;;;4.40;92.00;;;;;;5097910;28;20043;-76
2022/11/26 08:59:59;;;;;;;0.77;0.60;;;4.50;92.00;;;;;;5097771;28;20039;-76
2022/11/26 09:02:25;;;;;;;0.98;0.63;;;4.60;91.90;;;;;;5115211;28;20046;-75
2022/11/26 09:04:50;;;;;;;0.90;0.70;;;4.60;91.90;;;;;;5080335;28;20039;-76
2022/11/26 09:07:16;;;;;;;0.77;0.60;;;4.80;91.80;;;;;;5097375;28;20039;-76
2022/11/26 09:09:42;;;;;;;1.23;0.75;;;4.80;91.80;;;;;;5097187;28;20031;-75
2022/11/26 09:12:09;;;;;;;1.63;0.88;;;4.90;91.80;;;;;;5096997;28;20494;-75
2022/11/26 09:14:37;;;;;;;1.08;0.70;;;5.00;91.70;;;;;;5096821;28;20131;-76
2022/11/26 09:17:03;;;;;;;0.82;0.60;;;5.10;91.70;;;;;;5114920;28;20517;-76
2022/11/26 09:19:29;;;;;;;0.65;0.65;;;5.20;91.70;;;;;;5096907;28;20085;-76
2022/11/26 09:21:55;;;;;;;1.10;0.80;;;5.20;91.70;;;;;;5115199;28;20437;-76
2022/11/26 09:24:21;;;;;;;3.10;0.93;;;5.30;91.70;;;;;;5096767;28;20042;-76
2022/11/26 09:26:48;;;;;;;1.40;0.98;;;5.40;91.70;;;;;;5115551;28;20035;-76
2022/11/26 09:29:17;;;;;;;1.92;0.90;;;5.40;91.70;;;;;;5115109;28;20093;-76
2022/11/26 09:31:44;;;;;;;2.90;1.10;;;5.50;91.70;;;;;;5115486;28;20097;-75
2022/11/26 09:34:10;;;;;;;1.80;1.00;;;5.50;91.60;;;;;;5114844;28;20081;-76
2022/11/26 09:36:35;;;;;;;3.10;1.30;;;5.60;91.60;;;;;;5115216;28;20074;-75
2022/11/26 09:39:01;;;;;;;1.77;1.00;;;5.70;91.60;;;;;;5115001;28;20097;-76
2022/11/26 09:41:51;;;;;;;2.25;0.80;;;5.70;91.60;;;;;;5114527;28;20048;-75
2022/11/26 09:44:51;;;;;;;2.35;1.20;;;5.80;91.60;;;;;;5114773;28;20047;-75
2022/11/26 09:47:24;;;;;;;0.77;0.70;;;5.90;91.60;;;;;;5101661;28;20186;-76
2022/11/26 09:50:15;;;;;;;1.50;0.95;;;5.90;91.60;;;;;;5097712;28;20140;-76
2022/11/26 09:52:56;;;;;;;0.82;0.75;;;6.00;91.60;;;;;;5114122;28;20050;-75
2022/11/26 09:55:26;;;;;;;2.53;1.08;;;6.20;91.60;;;;;;5115230;28;20039;-75
2022/11/26 09:58:12;;;;;;;2.53;1.25;;;6.20;91.50;;;;;;5096903;28;20040;-75
2022/11/26 10:00:44;;;;;;;1.45;0.85;;;6.30;91.50;;;;;;5096272;28;20036;-75
2022/11/26 10:03:22;;;;;;;3.13;1.10;;;6.40;91.50;;;;;;5096380;28;20054;-76
2022/11/26 10:06:16;;;;;;;2.78;1.10;;;6.40;91.40;;;;;;5098114;28;20036;-76
2022/11/26 10:09:09;;;;;;;1.55;0.90;;;6.50;91.50;;;;;;5114476;28;20090;-75
2022/11/26 10:11:47;;;;;;;2.08;1.00;;;6.80;91.50;;;;;;5100774;28;20536;-77
2022/11/26 10:14:28;;;;;;;1.55;1.05;;;6.70;91.40;;;;;;5097265;28;20085;-75
2022/11/26 10:17:18;;;;;;;2.38;0.95;;;6.80;91.40;;;;;;5114123;28;20039;-75
2022/11/26 10:20:03;;;;;;;3.20;1.00;;;6.80;91.40;;;;;;5114248;28;20039;-75
2022/11/26 10:22:36;;;;;;;2.30;1.13;;;6.90;91.40;;;;;;5095735;28;20473;-75
2022/11/26 10:25:12;;;;;;;2.58;1.33;;;7.00;91.40;;;;;;5095715;28;20040;-75
2022/11/26 10:27:38;;;;;;;1.42;1.00;;;7.10;91.50;;;;;;5095660;28;20027;-75
2022/11/26 10:30:24;;;;;;;1.63;0.90;;;7.10;91.50;;;;;;5113978;28;20043;-75
2022/11/26 10:32:52;;;;;;;1.98;1.10;;;7.10;91.50;;;;;;5095756;28;20046;-74
2022/11/26 10:35:22;;;;;;;2.53;1.20;;;7.20;91.40;;;;;;5113827;28;20058;-74
2022/11/26 10:37:48;;;;;;;3.03;1.10;;;7.20;91.50;;;;;;5111658;28;20487;-75
2022/11/26 10:40:24;;;;;;;2.10;1.20;;;7.30;91.50;;;;;;5095377;28;20047;-75
2022/11/26 10:43:11;;;;;;;2.80;1.30;;;7.30;91.50;;;;;;5113630;28;20043;-75
2022/11/26 10:45:40;;;;;;;1.70;1.00;;;7.50;91.60;;;;;;5114408;28;20032;-75
2022/11/26 10:48:20;;;;;;;3.33;1.27;;;7.50;91.50;;;;;;5113960;28;20615;-75
2022/11/26 10:51:27;;;;;;;2.28;1.15;;;7.50;91.50;;;;;;5113433;28;20027;-75
2022/11/26 10:54:03;;;;;;;2.53;1.23;;;7.60;91.60;;;;;;5112035;28;20135;-74
2022/11/26 10:56:35;;;;;;;3.47;1.58;;;7.80;91.60;;;;;;5095703;28;20062;-75
2022/11/26 10:59:04;;;;;;;2.28;1.40;;;7.60;91.50;;;;;;5114064;28;20134;-75
2022/11/26 11:01:38;;;;;;;2.17;1.23;;;7.70;91.50;;;;;;5095484;28;20036;-75
2022/11/26 11:04:22;;;;;;;3.65;1.33;;;7.80;91.60;;;;;;5113978;28;20475;-74
2022/11/26 11:06:47;;;;;;;2.67;1.40;;;7.80;91.60;;;;;;5113477;28;20035;-75
2022/11/26 11:09:33;;;;;;;3.33;1.20;;;7.80;91.50;;;;;;5113554;28;20507;-75
2022/11/26 11:12:18;;;;;;;1.50;1.00;;;7.90;91.60;;;;;;5095174;28;20530;-75
2022/11/26 11:14:45;;;;;;;1.20;0.80;;;7.90;91.60;;;;;;5113165;28;20046;-75
2022/11/26 11:17:32;;;;;;;2.13;1.00;;;8.00;91.60;;;;;;5113792;28;20081;-75
2022/11/26 11:20:06;;;;;;;4.68;1.08;;;8.10;91.60;;;;;;5078397;28;20047;-75
2022/11/26 11:22:32;;;;;;;1.10;0.70;;;8.10;91.70;;;;;;5113074;28;20088;-74
2022/11/26 11:24:59;;;;;;;2.08;1.05;;;8.10;91.70;;;;;;5113249;28;20044;-75
2022/11/26 11:27:36;;;;;;;1.15;0.85;;;8.20;91.70;;;;;;5113351;28;20483;-75
2022/11/26 11:30:02;;;;;;;1.80;0.88;;;8.20;91.70;;;;;;5113577;28;20480;-75
2022/11/26 11:32:38;;;;;;;2.55;0.85;;;8.30;91.70;;;;;;5078046;28;20047;-75
2022/11/26 11:35:30;;;;;;;2.38;0.70;;;8.20;91.70;;;;;;5113024;28;20385;-75
2022/11/26 11:37:57;;;;;;;1.25;0.80;;;8.30;91.80;;;;;;5113059;28;20394;-75
2022/11/26 11:40:26;;;;;;;2.45;0.63;;;8.40;91.80;;;;;;5094836;28;20050;-75
2022/11/26 11:43:02;;;;;;;1.23;0.77;;;8.40;91.80;;;;;;5094928;28;20043;-75
2022/11/26 11:45:33;;;;;;;0.80;0.60;;;8.50;91.80;;;;;;5113282;28;20036;-75
2022/11/26 11:48:17;;;;;;;1.38;0.88;;;8.60;91.80;;;;;;5113055;28;20085;-75
2022/11/26 11:50:54;;;;;;;0.98;0.70;;;8.70;91.70;;;;;;5113563;28;20032;-74
2022/11/26 11:53:37;;;;;;;1.20;0.70;;;8.80;91.70;;;;;;5110553;28;20036;-74
2022/11/26 11:56:22;;;;;;;1.98;0.70;;;8.90;91.70;;;;;;5079837;28;20383;-74
2022/11/26 11:59:03;;;;;;;2.55;1.02;;;9.00;91.60;;;;;;5112606;28;20039;-74
2022/11/26 12:01:52;;;;;;;1.50;0.90;;;9.00;91.60;;;;;;5112552;28;20051;-75
2022/11/26 12:04:52;;;;;;;1.40;0.90;;;9.20;91.50;;;;;;5112087;28;20050;-74
2022/11/26 12:07:33;;;;;;;1.50;0.85;;;9.30;91.50;;;;;;5113056;28;20047;-76
2022/11/26 12:10:18;;;;;;;2.08;0.88;;;9.30;91.40;;;;;;5095666;28;20043;-76
2022/11/26 12:12:49;;;;;;;3.30;0.95;;;9.50;91.30;;;;;;5094227;28;20572;-76
2022/11/26 12:15:28;;;;;;;2.88;1.10;;;9.50;91.20;;;;;;5112757;28;20039;-76
2022/11/26 12:18:21;;;;;;;2.13;1.05;;;9.60;91.50;;;;;;5094269;28;20502;-76
2022/11/26 12:20:54;;;;;;;2.95;1.20;;;9.70;91.20;;;;;;5113048;28;20043;-76
2022/11/26 12:23:31;;;;;;;4.47;1.30;;;9.70;91.10;;;;;;5112716;28;20131;-76
2022/11/26 12:26:11;;;;;;;3.35;1.20;;;9.90;91.10;;;;;;5093737;28;20130;-76
2022/11/26 12:28:43;;;;;;;2.83;1.02;;;9.90;91.00;;;;;;5110484;28;20054;-75
2022/11/26 12:31:18;;;;;;;3.65;1.15;;;10.00;91.00;;;;;;5095085;28;20042;-76
2022/11/26 12:33:50;;;;;;;1.77;1.00;;;10.00;91.00;;;;;;5094019;28;20513;-75
2022/11/26 12:36:25;;;;;;;2.47;1.17;;;10.20;90.90;;;;;;5112653;28;20610;-75
2022/11/26 12:38:56;;;;;;;3.15;1.25;;;10.20;90.90;;;;;;5112675;28;20066;-75
2022/11/26 12:41:32;;;;;;;2.22;1.30;;;10.20;90.90;;;;;;5094871;28;20039;-76
2022/11/26 12:44:27;;;;;;;2.00;1.10;;;10.20;90.90;;;;;;5112423;28;20399;-76
2022/11/26 12:47:23;;;;;;;2.85;1.42;;;10.20;90.90;;;;;;5112236;28;20094;-76
2022/11/26 12:50:21;;;;;;;2.03;1.27;;;10.30;90.90;;;;;;5111962;28;20048;-75
2022/11/26 12:53:05;;;;;;;1.48;1.10;;;10.30;90.90;;;;;;5079508;28;20151;-75
2022/11/26 12:55:39;;;;;;;2.17;1.08;;;10.30;90.90;;;;;;5111936;28;20036;-76
2022/11/26 12:58:19;;;;;;;1.80;1.20;;;10.40;90.90;;;;;;5093805;28;20054;-76
2022/11/26 13:00:48;;;;;;;3.15;1.10;;;10.40;90.90;;;;;;5111370;27;20048;-76
2022/11/26 13:03:17;;;;;;;3.20;1.00;;;10.40;90.90;;;;;;5093840;28;20036;-76
2022/11/26 13:06:06;;;;;;;3.90;1.05;;;10.30;91.00;;;;;;5093718;28;20039;-75
2022/11/26 13:08:51;;;;;;;1.63;1.00;;;10.20;91.00;;;;;;5111755;28;20039;-76
2022/11/26 13:11:35;;;;;;;3.10;1.10;;;10.30;91.00;;;;;;5111654;28;20036;-76
2022/11/26 13:14:30;;;;;;;3.42;1.10;;;10.40;91.10;;;;;;5093336;28;20043;-76
2022/11/26 13:17:03;;;;;;;2.78;1.00;;;10.30;91.10;;;;;;5115425;28;20126;-76